Alex Mcallister — WDG5889 — position and weather

sailwx.info

Track history (hours):
 
Tides and Currents Weather Stations Pressure Air Temp Water Temp Dewpoint Dewpoint Depression Visibility Wind Speed Wind Dir Waves Ship Positions

Alex Mcallister

Owner: McAllister Towing & Transportation Co. Inc, Staten Island, NY. More information available from US FCC via Universal Licensing System and Coast Guard Vessel Documentation Center.

Last reported at 2017-Sep-20 02:00 UTC. Time now 2017-Sep-20 02:04 UTC.
Position N 40°40' W 074°05'.

Length 29 m; draft 4.5 m.

Type: Tug. MMSI: 367551340.

Date/timePositionNaut miles runAvg speedWind from/ knotsBaromVisibWave heightAir tempDewpointWater temp
2017-Sep-20 02:00N 40°40' W 074°05'0 0.0
2017-Sep-20 01:30N 40°40' W 074°05'0 0.0
2017-Sep-20 01:00N 40°40' W 074°05'0 0.0
2017-Sep-20 00:30N 40°40' W 074°05'2 3.2
2017-Sep-20 00:00N 40°39' W 074°06'2 4.3
2017-Sep-19 23:30N 40°40' W 074°09'1 1.1
2017-Sep-19 23:00N 40°40' W 074°08'1 1.1
2017-Sep-19 22:30N 40°40' W 074°09'2 3.1
2017-Sep-19 22:00N 40°39' W 074°07'2 4.8
2017-Sep-19 21:30N 40°39' W 074°04'0 0.4
2017-Sep-19 21:00N 40°39' W 074°04'4 8.8
2017-Sep-19 20:30N 40°38' W 074°10'0 0.3
2017-Sep-19 20:00N 40°38' W 074°10'0 0.0
2017-Sep-19 19:30N 40°38' W 074°10'0 0.0
2017-Sep-19 19:00N 40°38' W 074°10'0 0.0
2017-Sep-19 18:30N 40°38' W 074°10'0 0.0
2017-Sep-19 18:00N 40°38' W 074°10'0 0.0
2017-Sep-19 17:30N 40°38' W 074°10'0 0.0
2017-Sep-19 17:00N 40°38' W 074°10'0 0.0
2017-Sep-19 16:30N 40°38' W 074°10'  
2017-Sep-13 22:36N 40°38' W 074°10'0 0.1
2017-Sep-13 22:30N 40°38' W 074°10'0 0.0
2017-Sep-13 22:00N 40°38' W 074°10'2 3.3
2017-Sep-13 21:30N 40°38' W 074°12'2 3.3
2017-Sep-13 21:00N 40°39' W 074°10'0 0.4
2017-Sep-13 20:30N 40°38' W 074°10'4 7.2
2017-Sep-13 20:00N 40°35' W 074°12'4 2.0
2017-Sep-13 18:11N 40°32' W 074°15'3 4.5
2017-Sep-13 17:35N 40°34' W 074°13'1 5.7
2017-Sep-13 17:29N 40°35' W 074°12'2 4.8
2017-Sep-13 17:00N 40°37' W 074°12'2 4.7
2017-Sep-13 16:29N 40°39' W 074°10'3 6.6
2017-Sep-13 16:00N 40°39' W 074°05'2 3.7
2017-Sep-13 15:31N 40°38' W 074°04'0 0.2
2017-Sep-13 15:01N 40°38' W 074°04'3 5.0
2017-Sep-13 14:30N 40°39' W 074°07'2 4.5
2017-Sep-13 14:00N 40°38' W 074°10'0 0.0
2017-Sep-13 13:30N 40°38' W 074°10'0 0.0
2017-Sep-13 13:00N 40°38' W 074°10'0 0.0
2017-Sep-13 12:30N 40°38' W 074°10'0 0.0
2017-Sep-13 12:00N 40°38' W 074°10'0 0.0
2017-Sep-13 11:30N 40°38' W 074°10'1 1.7
2017-Sep-13 11:00N 40°39' W 074°09'3 5.6
2017-Sep-13 10:30N 40°42' W 074°09'1 2.3
2017-Sep-13 10:00N 40°41' W 074°08'2 4.3
2017-Sep-13 09:30N 40°39' W 074°08'3 5.7
2017-Sep-13 09:01N 40°39' W 074°04'2 3.9
2017-Sep-13 08:30N 40°37' W 074°03'3 6.9
2017-Sep-13 08:00N 40°39' W 074°07'2 4.1
2017-Sep-13 07:30N 40°38' W 074°10'0 0.0
2017-Sep-13 07:00N 40°38' W 074°10'0 0.0
2017-Sep-13 06:30N 40°38' W 074°10'0 0.0
2017-Sep-13 06:00N 40°38' W 074°10'0 0.0
2017-Sep-13 05:30N 40°38' W 074°10'0 0.0
2017-Sep-13 05:00N 40°38' W 074°10'0 0.0
2017-Sep-13 04:30N 40°38' W 074°10'0 0.0
2017-Sep-13 04:00N 40°38' W 074°10'0 0.0
2017-Sep-13 03:30N 40°38' W 074°10'0 0.0
2017-Sep-13 03:00N 40°38' W 074°10'0 0.0
2017-Sep-13 02:30N 40°38' W 074°10'0 0.0
2017-Sep-13 02:00N 40°38' W 074°10'0 0.0
2017-Sep-13 01:30N 40°38' W 074°10'0 0.0
2017-Sep-13 01:01N 40°38' W 074°10'0 0.0
2017-Sep-13 00:30N 40°38' W 074°10'0 0.0
2017-Sep-13 00:00N 40°38' W 074°10'0 0.0
2017-Sep-12 23:30N 40°38' W 074°10'0 0.0
2017-Sep-12 23:00N 40°38' W 074°10'0 0.0
2017-Sep-12 22:30N 40°38' W 074°10'0 0.0
2017-Sep-12 22:00N 40°38' W 074°10'0 0.0
2017-Sep-12 21:31N 40°38' W 074°10'0 0.0
2017-Sep-12 21:00N 40°38' W 074°10'3 6.9
2017-Sep-12 20:30N 40°39' W 074°05'1 2.6
2017-Sep-12 20:00N 40°40' W 074°04'4 7.8
2017-Sep-12 19:30N 40°36' W 074°03'2 3.7
2017-Sep-12 19:01N 40°38' W 074°04'0 0.0
2017-Sep-12 18:31N 40°38' W 074°04'2 3.6
2017-Sep-12 18:00N 40°39' W 074°06'1 1.8
2017-Sep-12 17:29N 40°39' W 074°07'1 2.8
2017-Sep-12 17:00N 40°39' W 074°09'2 3.5
2017-Sep-12 16:30N 40°41' W 074°08'1 1.6
2017-Sep-12 16:01N 40°42' W 074°09'2 3.8
2017-Sep-12 15:30N 40°40' W 074°08'2 3.6
2017-Sep-12 15:00N 40°38' W 074°10'0 0.0
2017-Sep-12 14:30N 40°38' W 074°10'0 0.0
2017-Sep-12 14:00N 40°38' W 074°10'0 0.0
2017-Sep-12 13:30N 40°38' W 074°10'1 2.0
2017-Sep-12 12:59N 40°39' W 074°11'4 8.7
2017-Sep-12 12:30N 40°35' W 074°13'3 1.2
2017-Sep-12 10:09N 40°32' W 074°15'3 4.0
2017-Sep-12 09:31N 40°34' W 074°13'0 6.3
2017-Sep-12 09:29N 40°34' W 074°13'2 3.9
2017-Sep-12 09:00N 40°36' W 074°12'2 3.2
2017-Sep-12 08:29N 40°38' W 074°12'0 0.4
2017-Sep-12 08:00N 40°38' W 074°12'0 0.0
2017-Sep-12 07:30N 40°38' W 074°12'2 3.7
2017-Sep-12 07:00N 40°38' W 074°10'0 0.0
2017-Sep-12 06:30N 40°38' W 074°10'0 0.0
2017-Sep-12 06:00N 40°38' W 074°10'0 0.0
2017-Sep-12 05:31N 40°38' W 074°10'0 0.0
2017-Sep-12 05:00N 40°38' W 074°10'4 9.1
2017-Sep-12 04:31N 40°38' W 074°04'1 1.5
2017-Sep-12 04:01N 40°38' W 074°04'0 0.0
2017-Sep-12 03:30N 40°38' W 074°04'0 0.0
2017-Sep-12 03:00N 40°38' W 074°04'0 0.0
2017-Sep-12 02:30N 40°38' W 074°04'0 0.0
2017-Sep-12 02:00N 40°38' W 074°04'0 0.0
2017-Sep-12 01:30N 40°38' W 074°04'0 0.0
2017-Sep-12 01:01N 40°38' W 074°04'0 0.0
2017-Sep-12 00:31N 40°38' W 074°04'0 0.0
2017-Sep-12 00:00N 40°38' W 074°04'0 0.0
2017-Sep-11 23:30N 40°38' W 074°04'0 0.0
2017-Sep-11 23:01N 40°38' W 074°04'0 0.0
2017-Sep-11 22:30N 40°38' W 074°04'0 0.0
2017-Sep-11 22:00N 40°38' W 074°04'0 0.0
2017-Sep-11 21:30N 40°38' W 074°04'0 0.0
2017-Sep-11 21:00N 40°38' W 074°04'0 0.0
2017-Sep-11 20:30N 40°38' W 074°04'0 0.0
2017-Sep-11 20:00N 40°38' W 074°04'0 0.0
2017-Sep-11 19:30N 40°38' W 074°04'0 0.0
2017-Sep-11 19:00N 40°38' W 074°04'0 0.0
2017-Sep-11 18:30N 40°38' W 074°04'0 0.0
2017-Sep-11 18:00N 40°38' W 074°04'0 0.0
2017-Sep-11 17:30N 40°38' W 074°04'1 1.2
2017-Sep-11 17:00N 40°37' W 074°04'1 1.2
2017-Sep-11 16:31N 40°38' W 074°04'0 0.0
2017-Sep-11 16:00N 40°38' W 074°04'1 2.2
2017-Sep-11 15:30N 40°37' W 074°03'0 0.2
2017-Sep-11 15:00N 40°37' W 074°03'1 1.6
2017-Sep-11 14:30N 40°38' W 074°03'2 3.7
2017-Sep-11 14:01N 40°39' W 074°05'3 4.5
2017-Sep-11 13:25N 40°39' W 074°09'1 2.1
2017-Sep-11 13:00N 40°40' W 074°08'1 1.5
2017-Sep-11 12:31N 40°40' W 074°09'1 1.3
2017-Sep-11 11:24N 40°38' W 074°10'2 6.2
2017-Sep-11 11:00N 40°41' W 074°09'0 0.5
2017-Sep-11 10:30N 40°41' W 074°09'0 0.4
2017-Sep-11 10:01N 40°41' W 074°09'2 4.5
2017-Sep-11 09:31N 40°39' W 074°09'3 5.7
2017-Sep-11 09:00N 40°39' W 074°05'3 6.5
2017-Sep-11 08:30N 40°36' W 074°03'3 6.5
2017-Sep-11 08:00N 40°39' W 074°05'4 7.2
2017-Sep-11 07:31N 40°38' W 074°10'0 0.0
2017-Sep-11 07:00N 40°38' W 074°10'0 0.0
2017-Sep-11 06:30N 40°38' W 074°10'0 0.0
2017-Sep-11 06:00N 40°38' W 074°10'0 0.0
2017-Sep-11 05:30N 40°38' W 074°10'1 1.9
2017-Sep-11 05:00N 40°39' W 074°11'1 2.2
2017-Sep-11 04:30N 40°38' W 074°12'0 0.8
2017-Sep-11 04:00N 40°38' W 074°12'2 4.2
2017-Sep-11 03:30N 40°39' W 074°09'3 5.5
2017-Sep-11 03:01N 40°39' W 074°05'2 4.1
2017-Sep-11 02:30N 40°38' W 074°03'3 6.3
2017-Sep-11 02:00N 40°39' W 074°07'3 6.4
2017-Sep-11 01:30N 40°38' W 074°12'5 4.4
2017-Sep-11 00:28N 40°34' W 074°13'2 4.3
2017-Sep-10 23:59N 40°36' W 074°12'2 4.0
2017-Sep-10 23:30N 40°38' W 074°12'0 0.1
2017-Sep-10 23:00N 40°38' W 074°12'2 3.8
2017-Sep-10 22:30N 40°39' W 074°10'0 0.2
2017-Sep-10 22:00N 40°38' W 074°10'0 0.0
2017-Sep-10 21:30N 40°38' W 074°10'0 0.0
2017-Sep-10 21:00N 40°38' W 074°10'0 0.0
2017-Sep-10 20:30N 40°38' W 074°10'2 4.7
2017-Sep-10 20:00N 40°40' W 074°08'0 0.0
2017-Sep-10 19:30N 40°40' W 074°08'0 0.0
2017-Sep-10 19:00N 40°40' W 074°08'0 0.0
2017-Sep-10 18:30N 40°40' W 074°08'1 1.2
2017-Sep-10 18:00N 40°40' W 074°09'2 3.4
2017-Sep-10 17:30N 40°38' W 074°10'0 0.0
2017-Sep-10 16:59N 40°38' W 074°10'0 0.0
2017-Sep-10 16:30N 40°38' W 074°10'0 0.0
2017-Sep-10 16:00N 40°38' W 074°10'0 0.0
2017-Sep-10 15:30N 40°38' W 074°10'1 1.3
2017-Sep-10 14:59N 40°39' W 074°11'2 2.2
2017-Sep-10 14:00N 40°39' W 074°08'1 2.7
2017-Sep-10 13:30N 40°38' W 074°10'0 0.3
2017-Sep-10 13:00N 40°38' W 074°10'0 0.0
2017-Sep-10 12:30N 40°38' W 074°10'0 0.0
2017-Sep-10 12:00N 40°38' W 074°10'0 0.0
2017-Sep-10 11:30N 40°38' W 074°10'3 6.9
2017-Sep-10 11:00N 40°39' W 074°05'0 0.6
2017-Sep-10 10:30N 40°39' W 074°05'0 0.0
2017-Sep-10 10:01N 40°39' W 074°05'0 0.0
2017-Sep-10 09:30N 40°39' W 074°05'1 2.0
2017-Sep-10 09:00N 40°39' W 074°04'2 3.3
2017-Sep-10 08:30N 40°37' W 074°03'5 9.6
2017-Sep-10 07:59N 40°38' W 074°10'0 0.5
2017-Sep-10 07:30N 40°38' W 074°10'0 0.0
2017-Sep-10 06:59N 40°38' W 074°10'0 0.0
2017-Sep-10 06:30N 40°38' W 074°10'0 0.0
2017-Sep-10 06:00N 40°38' W 074°10'0 0.0
2017-Sep-10 05:30N 40°38' W 074°10'0 0.0
2017-Sep-10 05:00N 40°38' W 074°10'0 0.0
2017-Sep-10 04:30N 40°38' W 074°10'0 0.0
2017-Sep-10 04:00N 40°38' W 074°10'0 0.0
2017-Sep-10 03:31N 40°38' W 074°10'0 0.0
2017-Sep-10 03:00N 40°38' W 074°10'0 0.0
2017-Sep-10 02:30N 40°38' W 074°10'  
Track history (hours):
 
Tides and Currents Weather Stations Pressure Air Temp Water Temp Dewpoint Dewpoint Depression Visibility Wind Speed Wind Dir Waves Ship Positions

Alex Mcallister

Owner: McAllister Towing & Transportation Co. Inc, Staten Island, NY. More information available from US FCC via Universal Licensing System and Coast Guard Vessel Documentation Center.

Last reported at 2017-Sep-20 02:00 UTC. Time now 2017-Sep-20 02:04 UTC.
Position N 40°40' W 074°05'.

Length 29 m; draft 4.5 m.

Type: Tug. MMSI: 367551340.

Date/timePositionNaut miles runAvg speedWind from/ knotsBaromVisibWave heightAir tempDewpointWater temp
2017-Sep-20 02:00N 40°40' W 074°05'0 0.0
2017-Sep-20 01:30N 40°40' W 074°05'0 0.0
2017-Sep-20 01:00N 40°40' W 074°05'0 0.0
2017-Sep-20 00:30N 40°40' W 074°05'2 3.2
2017-Sep-20 00:00N 40°39' W 074°06'2 4.3
2017-Sep-19 23:30N 40°40' W 074°09'1 1.1
2017-Sep-19 23:00N 40°40' W 074°08'1 1.1
2017-Sep-19 22:30N 40°40' W 074°09'2 3.1
2017-Sep-19 22:00N 40°39' W 074°07'2 4.8
2017-Sep-19 21:30N 40°39' W 074°04'0 0.4
2017-Sep-19 21:00N 40°39' W 074°04'4 8.8
2017-Sep-19 20:30N 40°38' W 074°10'0 0.3
2017-Sep-19 20:00N 40°38' W 074°10'0 0.0
2017-Sep-19 19:30N 40°38' W 074°10'0 0.0
2017-Sep-19 19:00N 40°38' W 074°10'0 0.0
2017-Sep-19 18:30N 40°38' W 074°10'0 0.0
2017-Sep-19 18:00N 40°38' W 074°10'0 0.0
2017-Sep-19 17:30N 40°38' W 074°10'0 0.0
2017-Sep-19 17:00N 40°38' W 074°10'0 0.0
2017-Sep-19 16:30N 40°38' W 074°10'  
2017-Sep-13 22:36N 40°38' W 074°10'0 0.1
2017-Sep-13 22:30N 40°38' W 074°10'0 0.0
2017-Sep-13 22:00N 40°38' W 074°10'2 3.3
2017-Sep-13 21:30N 40°38' W 074°12'2 3.3
2017-Sep-13 21:00N 40°39' W 074°10'0 0.4
2017-Sep-13 20:30N 40°38' W 074°10'4 7.2
2017-Sep-13 20:00N 40°35' W 074°12'4 2.0
2017-Sep-13 18:11N 40°32' W 074°15'3 4.5
2017-Sep-13 17:35N 40°34' W 074°13'1 5.7
2017-Sep-13 17:29N 40°35' W 074°12'2 4.8
2017-Sep-13 17:00N 40°37' W 074°12'2 4.7
2017-Sep-13 16:29N 40°39' W 074°10'3 6.6
2017-Sep-13 16:00N 40°39' W 074°05'2 3.7
2017-Sep-13 15:31N 40°38' W 074°04'0 0.2
2017-Sep-13 15:01N 40°38' W 074°04'3 5.0
2017-Sep-13 14:30N 40°39' W 074°07'2 4.5
2017-Sep-13 14:00N 40°38' W 074°10'0 0.0
2017-Sep-13 13:30N 40°38' W 074°10'0 0.0
2017-Sep-13 13:00N 40°38' W 074°10'0 0.0
2017-Sep-13 12:30N 40°38' W 074°10'0 0.0
2017-Sep-13 12:00N 40°38' W 074°10'0 0.0
2017-Sep-13 11:30N 40°38' W 074°10'1 1.7
2017-Sep-13 11:00N 40°39' W 074°09'3 5.6
2017-Sep-13 10:30N 40°42' W 074°09'1 2.3
2017-Sep-13 10:00N 40°41' W 074°08'2 4.3
2017-Sep-13 09:30N 40°39' W 074°08'3 5.7
2017-Sep-13 09:01N 40°39' W 074°04'2 3.9
2017-Sep-13 08:30N 40°37' W 074°03'3 6.9
2017-Sep-13 08:00N 40°39' W 074°07'2 4.1
2017-Sep-13 07:30N 40°38' W 074°10'0 0.0
2017-Sep-13 07:00N 40°38' W 074°10'0 0.0
2017-Sep-13 06:30N 40°38' W 074°10'0 0.0
2017-Sep-13 06:00N 40°38' W 074°10'0 0.0
2017-Sep-13 05:30N 40°38' W 074°10'0 0.0
2017-Sep-13 05:00N 40°38' W 074°10'0 0.0
2017-Sep-13 04:30N 40°38' W 074°10'0 0.0
2017-Sep-13 04:00N 40°38' W 074°10'0 0.0
2017-Sep-13 03:30N 40°38' W 074°10'0 0.0
2017-Sep-13 03:00N 40°38' W 074°10'0 0.0
2017-Sep-13 02:30N 40°38' W 074°10'0 0.0
2017-Sep-13 02:00N 40°38' W 074°10'0 0.0
2017-Sep-13 01:30N 40°38' W 074°10'0 0.0
2017-Sep-13 01:01N 40°38' W 074°10'0 0.0
2017-Sep-13 00:30N 40°38' W 074°10'0 0.0
2017-Sep-13 00:00N 40°38' W 074°10'0 0.0
2017-Sep-12 23:30N 40°38' W 074°10'0 0.0
2017-Sep-12 23:00N 40°38' W 074°10'0 0.0
2017-Sep-12 22:30N 40°38' W 074°10'0 0.0
2017-Sep-12 22:00N 40°38' W 074°10'0 0.0
2017-Sep-12 21:31N 40°38' W 074°10'0 0.0
2017-Sep-12 21:00N 40°38' W 074°10'3 6.9
2017-Sep-12 20:30N 40°39' W 074°05'1 2.6
2017-Sep-12 20:00N 40°40' W 074°04'4 7.8
2017-Sep-12 19:30N 40°36' W 074°03'2 3.7
2017-Sep-12 19:01N 40°38' W 074°04'0 0.0
2017-Sep-12 18:31N 40°38' W 074°04'2 3.6
2017-Sep-12 18:00N 40°39' W 074°06'1 1.8
2017-Sep-12 17:29N 40°39' W 074°07'1 2.8
2017-Sep-12 17:00N 40°39' W 074°09'2 3.5
2017-Sep-12 16:30N 40°41' W 074°08'1 1.6
2017-Sep-12 16:01N 40°42' W 074°09'2 3.8
2017-Sep-12 15:30N 40°40' W 074°08'2 3.6
2017-Sep-12 15:00N 40°38' W 074°10'0 0.0
2017-Sep-12 14:30N 40°38' W 074°10'0 0.0
2017-Sep-12 14:00N 40°38' W 074°10'0 0.0
2017-Sep-12 13:30N 40°38' W 074°10'1 2.0
2017-Sep-12 12:59N 40°39' W 074°11'4 8.7
2017-Sep-12 12:30N 40°35' W 074°13'3 1.2
2017-Sep-12 10:09N 40°32' W 074°15'3 4.0
2017-Sep-12 09:31N 40°34' W 074°13'0 6.3
2017-Sep-12 09:29N 40°34' W 074°13'2 3.9
2017-Sep-12 09:00N 40°36' W 074°12'2 3.2
2017-Sep-12 08:29N 40°38' W 074°12'0 0.4
2017-Sep-12 08:00N 40°38' W 074°12'0 0.0
2017-Sep-12 07:30N 40°38' W 074°12'2 3.7
2017-Sep-12 07:00N 40°38' W 074°10'0 0.0
2017-Sep-12 06:30N 40°38' W 074°10'0 0.0
2017-Sep-12 06:00N 40°38' W 074°10'0 0.0
2017-Sep-12 05:31N 40°38' W 074°10'0 0.0
2017-Sep-12 05:00N 40°38' W 074°10'4 9.1
2017-Sep-12 04:31N 40°38' W 074°04'1 1.5
2017-Sep-12 04:01N 40°38' W 074°04'0 0.0
2017-Sep-12 03:30N 40°38' W 074°04'0 0.0
2017-Sep-12 03:00N 40°38' W 074°04'0 0.0
2017-Sep-12 02:30N 40°38' W 074°04'0 0.0
2017-Sep-12 02:00N 40°38' W 074°04'0 0.0
2017-Sep-12 01:30N 40°38' W 074°04'0 0.0
2017-Sep-12 01:01N 40°38' W 074°04'0 0.0
2017-Sep-12 00:31N 40°38' W 074°04'0 0.0
2017-Sep-12 00:00N 40°38' W 074°04'0 0.0
2017-Sep-11 23:30N 40°38' W 074°04'0 0.0
2017-Sep-11 23:01N 40°38' W 074°04'0 0.0
2017-Sep-11 22:30N 40°38' W 074°04'0 0.0
2017-Sep-11 22:00N 40°38' W 074°04'0 0.0
2017-Sep-11 21:30N 40°38' W 074°04'0 0.0
2017-Sep-11 21:00N 40°38' W 074°04'0 0.0
2017-Sep-11 20:30N 40°38' W 074°04'0 0.0
2017-Sep-11 20:00N 40°38' W 074°04'0 0.0
2017-Sep-11 19:30N 40°38' W 074°04'0 0.0
2017-Sep-11 19:00N 40°38' W 074°04'0 0.0
2017-Sep-11 18:30N 40°38' W 074°04'0 0.0
2017-Sep-11 18:00N 40°38' W 074°04'0 0.0
2017-Sep-11 17:30N 40°38' W 074°04'1 1.2
2017-Sep-11 17:00N 40°37' W 074°04'1 1.2
2017-Sep-11 16:31N 40°38' W 074°04'0 0.0
2017-Sep-11 16:00N 40°38' W 074°04'1 2.2
2017-Sep-11 15:30N 40°37' W 074°03'0 0.2
2017-Sep-11 15:00N 40°37' W 074°03'1 1.6
2017-Sep-11 14:30N 40°38' W 074°03'2 3.7
2017-Sep-11 14:01N 40°39' W 074°05'3 4.5
2017-Sep-11 13:25N 40°39' W 074°09'1 2.1
2017-Sep-11 13:00N 40°40' W 074°08'1 1.5
2017-Sep-11 12:31N 40°40' W 074°09'1 1.3
2017-Sep-11 11:24N 40°38' W 074°10'2 6.2
2017-Sep-11 11:00N 40°41' W 074°09'0 0.5
2017-Sep-11 10:30N 40°41' W 074°09'0 0.4
2017-Sep-11 10:01N 40°41' W 074°09'2 4.5
2017-Sep-11 09:31N 40°39' W 074°09'3 5.7
2017-Sep-11 09:00N 40°39' W 074°05'3 6.5
2017-Sep-11 08:30N 40°36' W 074°03'3 6.5
2017-Sep-11 08:00N 40°39' W 074°05'4 7.2
2017-Sep-11 07:31N 40°38' W 074°10'0 0.0
2017-Sep-11 07:00N 40°38' W 074°10'0 0.0
2017-Sep-11 06:30N 40°38' W 074°10'0 0.0
2017-Sep-11 06:00N 40°38' W 074°10'0 0.0
2017-Sep-11 05:30N 40°38' W 074°10'1 1.9
2017-Sep-11 05:00N 40°39' W 074°11'1 2.2
2017-Sep-11 04:30N 40°38' W 074°12'0 0.8
2017-Sep-11 04:00N 40°38' W 074°12'2 4.2
2017-Sep-11 03:30N 40°39' W 074°09'3 5.5
2017-Sep-11 03:01N 40°39' W 074°05'2 4.1
2017-Sep-11 02:30N 40°38' W 074°03'3 6.3
2017-Sep-11 02:00N 40°39' W 074°07'3 6.4
2017-Sep-11 01:30N 40°38' W 074°12'5 4.4
2017-Sep-11 00:28N 40°34' W 074°13'2 4.3
2017-Sep-10 23:59N 40°36' W 074°12'2 4.0
2017-Sep-10 23:30N 40°38' W 074°12'0 0.1
2017-Sep-10 23:00N 40°38' W 074°12'2 3.8
2017-Sep-10 22:30N 40°39' W 074°10'0 0.2
2017-Sep-10 22:00N 40°38' W 074°10'0 0.0
2017-Sep-10 21:30N 40°38' W 074°10'0 0.0
2017-Sep-10 21:00N 40°38' W 074°10'0 0.0
2017-Sep-10 20:30N 40°38' W 074°10'2 4.7
2017-Sep-10 20:00N 40°40' W 074°08'0 0.0
2017-Sep-10 19:30N 40°40' W 074°08'0 0.0
2017-Sep-10 19:00N 40°40' W 074°08'0 0.0
2017-Sep-10 18:30N 40°40' W 074°08'1 1.2
2017-Sep-10 18:00N 40°40' W 074°09'2 3.4
2017-Sep-10 17:30N 40°38' W 074°10'0 0.0
2017-Sep-10 16:59N 40°38' W 074°10'0 0.0
2017-Sep-10 16:30N 40°38' W 074°10'0 0.0
2017-Sep-10 16:00N 40°38' W 074°10'0 0.0
2017-Sep-10 15:30N 40°38' W 074°10'1 1.3
2017-Sep-10 14:59N 40°39' W 074°11'2 2.2
2017-Sep-10 14:00N 40°39' W 074°08'1 2.7
2017-Sep-10 13:30N 40°38' W 074°10'0 0.3
2017-Sep-10 13:00N 40°38' W 074°10'0 0.0
2017-Sep-10 12:30N 40°38' W 074°10'0 0.0
2017-Sep-10 12:00N 40°38' W 074°10'0 0.0
2017-Sep-10 11:30N 40°38' W 074°10'3 6.9
2017-Sep-10 11:00N 40°39' W 074°05'0 0.6
2017-Sep-10 10:30N 40°39' W 074°05'0 0.0
2017-Sep-10 10:01N 40°39' W 074°05'0 0.0
2017-Sep-10 09:30N 40°39' W 074°05'1 2.0
2017-Sep-10 09:00N 40°39' W 074°04'2 3.3
2017-Sep-10 08:30N 40°37' W 074°03'5 9.6
2017-Sep-10 07:59N 40°38' W 074°10'0 0.5
2017-Sep-10 07:30N 40°38' W 074°10'0 0.0
2017-Sep-10 06:59N 40°38' W 074°10'0 0.0
2017-Sep-10 06:30N 40°38' W 074°10'0 0.0
2017-Sep-10 06:00N 40°38' W 074°10'0 0.0
2017-Sep-10 05:30N 40°38' W 074°10'0 0.0
2017-Sep-10 05:00N 40°38' W 074°10'0 0.0
2017-Sep-10 04:30N 40°38' W 074°10'0 0.0
2017-Sep-10 04:00N 40°38' W 074°10'0 0.0
2017-Sep-10 03:31N 40°38' W 074°10'0 0.0
2017-Sep-10 03:00N 40°38' W 074°10'0 0.0
2017-Sep-10 02:30N 40°38' W 074°10'  

Dump ship's entire track history